Shadyside, Pennsylvania
Current Conditions -  °F | °C
As of 4:53 AM on Thursday 18 Dec 2014 (Local Time) from KAGC Reporting Station
Overcast Overcast  
Wind Chill: 18°   Ceiling: 2500
Heat Index: 27°   Visibility: 10mi
Dew Point: 16°   Wind: 9mph
Humidity: 63%   Direction: 290°WNW
Pressure: 30.15"   Gusts: NA
Location:  40.4529°N, 79.9323°W
Report Text: KAGC 180953Z AUTO 29008KT 10SM OVC025 M03/M09 A3015 RMK AO2 SLP230 T10281089 TSNO
Loading
Personal Weather Stations






























Interactive Weather Map New forecast layout! Learn more

10-Day Weather Forecast

Advertisements
Track Severe Weather on mobile